createdAt,value
2023-02-19T00:00:09.268Z,5.55
2023-02-19T00:02:35.856Z,5.59
2023-02-19T00:05:02.606Z,5.65
2023-02-19T00:07:29.098Z,5.66
2023-02-19T00:09:55.583Z,5.74
2023-02-19T00:12:22.106Z,5.72
2023-02-19T00:14:48.625Z,5.71
2023-02-19T00:17:15.161Z,5.58
2023-02-19T00:19:41.687Z,5.61
2023-02-19T00:22:08.244Z,5.62
2023-02-19T00:24:34.903Z,5.78
2023-02-19T00:27:01.450Z,5.76
2023-02-19T00:29:27.976Z,5.79
2023-02-19T00:31:54.686Z,5.87
2023-02-19T00:34:21.372Z,5.84
2023-02-19T00:36:47.914Z,5.95
2023-02-19T00:39:16.222Z,5.88
2023-02-19T00:41:43.496Z,5.84
2023-02-19T00:44:11.404Z,5.77
2023-02-19T00:46:40.470Z,5.80
2023-02-19T00:49:08.895Z,5.80
2023-02-19T00:51:37.757Z,5.96
2023-02-19T00:54:05.828Z,6.25
2023-02-19T00:56:32.846Z,6.84
2023-02-19T00:58:59.607Z,7.13
2023-02-19T01:01:26.151Z,7.35
2023-02-19T01:03:52.814Z,7.43
2023-02-19T01:06:20.653Z,7.54
2023-02-19T01:08:47.690Z,7.46
2023-02-19T01:11:15.182Z,7.60
2023-02-19T01:13:42.932Z,7.79
2023-02-19T01:16:16.450Z,7.85
2023-02-19T01:18:43.802Z,7.91
2023-02-19T01:21:17.904Z,7.84
2023-02-19T01:23:44.748Z,7.82
2023-02-19T01:26:20.684Z,7.83
2023-02-19T01:28:48.529Z,7.86
2023-02-19T01:31:19.124Z,7.87
2023-02-19T01:33:48.011Z,7.64
2023-02-19T01:36:15.058Z,7.68
2023-02-19T01:38:41.971Z,7.69
2023-02-19T01:41:11.680Z,7.84
2023-02-19T01:44:13.871Z,7.87
2023-02-19T01:46:44.956Z,8.05
2023-02-19T01:49:17.322Z,7.94
2023-02-19T01:51:48.919Z,7.91
2023-02-19T01:54:20.466Z,7.87
2023-02-19T01:56:48.563Z,7.86
2023-02-19T01:59:16.898Z,7.79
2023-02-19T02:01:43.510Z,7.80
2023-02-19T02:04:13.278Z,7.74
2023-02-19T02:06:49.275Z,7.80
2023-02-19T02:09:36.865Z,7.75
2023-02-19T02:12:03.764Z,7.75
2023-02-19T02:14:34.179Z,7.67
2023-02-19T02:17:09.930Z,7.65
2023-02-19T02:19:45.451Z,7.68
2023-02-19T02:22:29.386Z,7.82
2023-02-19T02:25:10.716Z,7.90
2023-02-19T02:27:53.617Z,7.90
2023-02-19T02:30:30.294Z,8.00
2023-02-19T02:33:39.777Z,8.01
2023-02-19T02:36:12.951Z,8.14
2023-02-19T02:38:44.127Z,8.17
2023-02-19T02:41:12.963Z,8.06
2023-02-19T02:43:39.855Z,8.05
2023-02-19T02:46:06.795Z,8.05
2023-02-19T02:48:49.495Z,8.10
2023-02-19T02:51:38.764Z,7.91
2023-02-19T02:54:29.665Z,8.11
2023-02-19T02:56:58.523Z,8.12
2023-02-19T02:59:28.994Z,8.10
2023-02-19T03:02:14.710Z,8.01
2023-02-19T03:05:10.789Z,8.02
2023-02-19T03:07:53.403Z,7.93
2023-02-19T03:10:35.835Z,8.13
2023-02-19T03:13:24.870Z,8.20
2023-02-19T03:16:15.664Z,8.03
2023-02-19T03:19:03.206Z,7.97
2023-02-19T03:21:29.755Z,8.07
2023-02-19T03:24:16.452Z,7.87
2023-02-19T03:26:45.734Z,7.81
2023-02-19T03:29:23.213Z,7.92
2023-02-19T03:31:57.688Z,7.98
2023-02-19T03:34:30.630Z,8.13
2023-02-19T03:37:06.654Z,8.18
2023-02-19T03:39:33.311Z,8.35
2023-02-19T03:42:13.017Z,8.32
2023-02-19T03:44:46.733Z,8.28
2023-02-19T03:47:43.787Z,8.41
2023-02-19T03:50:13.320Z,8.47
2023-02-19T03:53:03.739Z,8.48
2023-02-19T03:56:05.896Z,8.59
2023-02-19T03:59:18.614Z,8.69
2023-02-19T04:01:52.327Z,8.73
2023-02-19T04:04:25.662Z,8.93
2023-02-19T04:06:57.481Z,9.02
2023-02-19T04:09:29.781Z,8.84
2023-02-19T04:11:57.109Z,8.51
2023-02-19T04:14:33.162Z,8.47
2023-02-19T04:17:04.116Z,8.50
2023-02-19T04:19:35.133Z,8.41
2023-02-19T04:22:02.149Z,8.51
2023-02-19T04:24:35.035Z,8.42
2023-02-19T04:27:02.636Z,8.50
2023-02-19T04:29:29.137Z,8.42
2023-02-19T04:31:55.762Z,8.41
2023-02-19T04:34:22.512Z,8.60
2023-02-19T04:36:49.105Z,8.71
2023-02-19T04:39:15.689Z,8.88
2023-02-19T04:41:42.266Z,8.72
2023-02-19T04:44:08.785Z,8.80
2023-02-19T04:46:35.312Z,8.97
2023-02-19T04:49:01.829Z,9.02
2023-02-19T04:51:28.455Z,9.03
2023-02-19T04:53:56.374Z,8.79
2023-02-19T04:56:23.014Z,8.85
2023-02-19T04:58:49.514Z,8.85
2023-02-19T05:01:16.162Z,8.90
2023-02-19T05:03:43.088Z,8.69
2023-02-19T05:06:12.165Z,8.72
2023-02-19T05:08:38.852Z,8.66
2023-02-19T05:11:08.469Z,8.64
2023-02-19T05:13:35.435Z,8.81
2023-02-19T05:16:13.845Z,8.99
2023-02-19T05:18:41.439Z,8.97
2023-02-19T05:21:08.886Z,9.01
2023-02-19T05:23:35.602Z,9.01
2023-02-19T05:26:11.869Z,9.19
2023-02-19T05:28:38.482Z,9.44
2023-02-19T05:31:07.507Z,9.32
2023-02-19T05:33:35.008Z,9.26
2023-02-19T05:36:08.839Z,9.23
2023-02-19T05:38:36.552Z,9.21
2023-02-19T05:41:17.152Z,9.12
2023-02-19T05:43:45.663Z,9.12
2023-02-19T05:46:15.362Z,9.13
2023-02-19T05:48:42.680Z,9.22
2023-02-19T05:51:14.744Z,9.43
2023-02-19T05:53:42.505Z,9.72
2023-02-19T05:56:27.367Z,9.59
2023-02-19T05:58:54.721Z,9.55
2023-02-19T06:01:23.807Z,9.27
2023-02-19T06:03:50.413Z,9.51
2023-02-19T06:06:19.062Z,9.28
2023-02-19T06:08:46.093Z,9.22
2023-02-19T06:11:12.928Z,9.32
2023-02-19T06:13:39.607Z,9.35
2023-02-19T06:16:07.579Z,9.38
2023-02-19T06:18:34.408Z,9.38
2023-02-19T06:21:05.904Z,9.53
2023-02-19T06:23:33.075Z,9.46
2023-02-19T06:26:20.291Z,9.55
2023-02-19T06:28:48.569Z,9.57
2023-02-19T06:31:15.729Z,9.20
2023-02-19T06:33:42.336Z,9.02
2023-02-19T06:36:13.218Z,8.78
2023-02-19T06:38:39.779Z,8.57
2023-02-19T06:41:07.471Z,8.57
2023-02-19T06:43:34.728Z,8.68
2023-02-19T06:46:02.945Z,8.53
2023-02-19T06:48:30.728Z,8.59
2023-02-19T06:50:57.783Z,8.37
2023-02-19T06:53:24.664Z,8.43
2023-02-19T06:55:58.848Z,8.65
2023-02-19T06:58:26.195Z,8.60
2023-02-19T07:00:53.957Z,8.68
2023-02-19T07:03:20.925Z,8.43
2023-02-19T07:05:47.767Z,8.47
2023-02-19T07:08:14.506Z,8.51
2023-02-19T07:10:41.067Z,8.58
2023-02-19T07:13:07.625Z,8.65
2023-02-19T07:15:34.302Z,8.63
2023-02-19T07:18:00.942Z,8.61
2023-02-19T07:20:27.512Z,8.53
2023-02-19T07:22:54.176Z,8.53
2023-02-19T07:25:20.840Z,8.49
2023-02-19T07:27:47.343Z,8.59
2023-02-19T07:30:13.930Z,8.70
2023-02-19T07:32:45.423Z,8.54
2023-02-19T07:35:12.021Z,8.39
2023-02-19T07:37:38.743Z,8.45
2023-02-19T07:40:05.999Z,8.38
2023-02-19T07:42:32.570Z,8.31
2023-02-19T07:45:00.661Z,8.42
2023-02-19T07:47:27.299Z,8.39
2023-02-19T07:49:53.808Z,8.44
2023-02-19T07:52:20.417Z,8.30
2023-02-19T07:54:46.987Z,8.41
2023-02-19T07:57:14.544Z,8.43
2023-02-19T07:59:41.126Z,8.48
2023-02-19T08:02:44.589Z,8.58
2023-02-19T08:05:11.110Z,8.55
2023-02-19T08:07:38.063Z,8.85
2023-02-19T08:10:23.785Z,9.12
2023-02-19T08:13:16.200Z,9.41
2023-02-19T08:15:42.949Z,10.27
2023-02-19T08:18:10.848Z,10.62
2023-02-19T08:20:37.535Z,10.87
2023-02-19T08:23:04.387Z,11.03
2023-02-19T08:25:31.053Z,11.17
2023-02-19T08:27:57.616Z,11.66
2023-02-19T08:30:24.285Z,11.92
2023-02-19T08:32:50.906Z,12.27
2023-02-19T08:35:17.616Z,12.10
2023-02-19T08:37:44.364Z,12.11
2023-02-19T08:40:11.626Z,12.38
2023-02-19T08:42:38.197Z,12.27
2023-02-19T08:45:05.723Z,12.87
2023-02-19T08:47:34.675Z,13.31
2023-02-19T08:50:01.247Z,13.71
2023-02-19T08:52:27.945Z,13.21
2023-02-19T08:54:54.469Z,13.51
2023-02-19T08:57:21.141Z,13.92
2023-02-19T08:59:47.733Z,14.30
2023-02-19T09:02:14.270Z,13.95
2023-02-19T09:04:40.901Z,13.88
2023-02-19T09:07:09.501Z,14.41
2023-02-19T09:09:38.947Z,14.66
2023-02-19T09:12:06.983Z,14.97
2023-02-19T09:14:34.546Z,15.06
2023-02-19T09:17:02.106Z,14.66
2023-02-19T09:19:29.205Z,15.05
2023-02-19T09:21:56.355Z,15.43
2023-02-19T09:24:23.422Z,15.07
2023-02-19T09:26:51.442Z,15.42
2023-02-19T09:29:18.230Z,15.46
2023-02-19T09:31:45.388Z,15.49
2023-02-19T09:34:12.112Z,15.73
2023-02-19T09:36:39.806Z,15.82
2023-02-19T09:39:08.527Z,14.80
2023-02-19T09:41:46.885Z,15.02
2023-02-19T09:44:33.054Z,15.48
2023-02-19T09:47:02.073Z,15.99
2023-02-19T09:49:36.369Z,16.11
2023-02-19T09:52:11.592Z,15.64
2023-02-19T09:54:39.590Z,15.43
2023-02-19T09:57:13.970Z,15.77
2023-02-19T09:59:45.308Z,15.85
2023-02-19T10:02:16.471Z,15.29
2023-02-19T10:04:45.813Z,14.81
2023-02-19T10:07:18.078Z,15.30
2023-02-19T10:10:17.948Z,14.55
2023-02-19T10:12:50.707Z,14.53
2023-02-19T10:15:22.561Z,14.25
2023-02-19T10:17:49.077Z,14.44
2023-02-19T10:20:18.955Z,14.00
2023-02-19T10:22:45.932Z,13.89
2023-02-19T10:25:16.775Z,13.73
2023-02-19T10:27:44.107Z,13.96
2023-02-19T10:30:23.963Z,14.28
2023-02-19T10:33:02.705Z,14.31
2023-02-19T10:35:31.069Z,14.12
2023-02-19T10:37:58.105Z,13.63
2023-02-19T10:40:29.096Z,14.19
2023-02-19T10:43:04.160Z,13.99
2023-02-19T10:45:50.435Z,14.29
2023-02-19T10:48:34.996Z,14.24
2023-02-19T10:51:06.113Z,13.73
2023-02-19T10:53:45.424Z,14.16
2023-02-19T10:56:25.066Z,13.82
2023-02-19T10:58:52.089Z,13.86
2023-02-19T11:01:29.265Z,14.14
2023-02-19T11:04:16.403Z,13.94
2023-02-19T11:06:43.309Z,14.27
2023-02-19T11:09:22.605Z,14.20
2023-02-19T11:11:52.114Z,14.24
2023-02-19T11:14:22.687Z,14.51
2023-02-19T11:16:56.457Z,14.15
2023-02-19T11:19:34.368Z,14.17
2023-02-19T11:22:02.266Z,14.23
2023-02-19T11:24:38.198Z,14.60
2023-02-19T11:27:07.715Z,13.96
2023-02-19T11:29:37.301Z,14.42
2023-02-19T11:32:32.499Z,14.32
2023-02-19T11:35:22.673Z,14.45
2023-02-19T11:37:59.957Z,14.40
2023-02-19T11:40:39.607Z,14.72
2023-02-19T11:43:21.408Z,14.92
2023-02-19T11:46:14.586Z,14.71
2023-02-19T11:49:08.954Z,14.37
2023-02-19T11:51:51.492Z,14.30
2023-02-19T11:54:40.796Z,14.57
2023-02-19T11:57:07.316Z,14.53
2023-02-19T12:00:15.853Z,14.44
2023-02-19T12:02:49.626Z,14.91
2023-02-19T12:06:10.166Z,14.81
2023-02-19T12:08:55.499Z,14.61
2023-02-19T12:11:34.491Z,14.06
2023-02-19T12:14:17.125Z,14.54
2023-02-19T12:16:43.701Z,14.39
2023-02-19T12:19:13.026Z,14.33
2023-02-19T12:21:57.691Z,14.59
2023-02-19T12:24:32.218Z,14.46
2023-02-19T12:27:40.854Z,14.85
2023-02-19T12:30:39.285Z,15.08
2023-02-19T12:33:24.376Z,15.76
2023-02-19T12:36:00.130Z,16.15
2023-02-19T12:38:40.204Z,15.83
2023-02-19T12:41:34.798Z,15.98
2023-02-19T12:44:13.764Z,16.04
2023-02-19T12:46:46.451Z,15.88
2023-02-19T12:49:36.059Z,16.31
2023-02-19T12:52:22.633Z,16.68
2023-02-19T12:54:55.834Z,16.32
2023-02-19T12:57:30.186Z,17.08
2023-02-19T13:00:15.269Z,17.77
2023-02-19T13:02:48.641Z,17.80
2023-02-19T13:05:29.646Z,16.92
2023-02-19T13:08:02.235Z,17.64
2023-02-19T13:10:51.469Z,17.83
2023-02-19T13:13:28.944Z,17.53
2023-02-19T13:16:02.586Z,17.12
2023-02-19T13:18:36.853Z,17.74
2023-02-19T13:21:06.385Z,17.49
2023-02-19T13:23:58.178Z,17.43
2023-02-19T13:26:42.817Z,17.17
2023-02-19T13:29:31.168Z,17.47
2023-02-19T13:31:57.918Z,17.57
2023-02-19T13:34:48.827Z,17.01
2023-02-19T13:37:16.810Z,17.00
2023-02-19T13:39:52.255Z,17.54
2023-02-19T13:42:27.980Z,17.56
2023-02-19T13:44:57.988Z,17.22
2023-02-19T13:47:57.393Z,16.42
2023-02-19T13:50:25.618Z,15.97
2023-02-19T13:52:53.943Z,16.72
2023-02-19T13:55:54.595Z,16.22
2023-02-19T13:58:33.467Z,16.00
2023-02-19T14:01:08.734Z,15.73
2023-02-19T14:04:07.751Z,16.23
2023-02-19T14:07:05.217Z,14.96
2023-02-19T14:09:35.446Z,14.49
2023-02-19T14:12:19.274Z,14.51
2023-02-19T14:14:53.654Z,14.06
2023-02-19T14:17:37.776Z,14.37
2023-02-19T14:20:11.594Z,14.08
2023-02-19T14:22:52.077Z,14.07
2023-02-19T14:25:38.223Z,13.91
2023-02-19T14:28:11.385Z,14.19
2023-02-19T14:31:05.722Z,14.21
2023-02-19T14:33:40.204Z,13.98
2023-02-19T14:36:20.538Z,13.99
2023-02-19T14:39:05.019Z,13.76
2023-02-19T14:41:33.890Z,13.73
2023-02-19T14:44:02.350Z,14.00
2023-02-19T14:46:40.151Z,13.82
2023-02-19T14:49:39.189Z,13.82
2023-02-19T14:52:11.827Z,14.17
2023-02-19T14:55:00.363Z,14.23
2023-02-19T14:57:45.975Z,14.08
2023-02-19T15:00:27.321Z,13.60
2023-02-19T15:02:56.885Z,13.70
2023-02-19T15:05:32.529Z,13.79
2023-02-19T15:08:02.492Z,13.55
2023-02-19T15:10:32.220Z,13.91
2023-02-19T15:13:05.924Z,13.84
2023-02-19T15:15:36.414Z,13.65
2023-02-19T15:18:05.291Z,13.81
2023-02-19T15:20:36.286Z,13.86
2023-02-19T15:23:06.524Z,13.71
2023-02-19T15:25:35.851Z,13.82
2023-02-19T15:28:24.990Z,14.12
2023-02-19T15:31:06.384Z,13.77
2023-02-19T15:33:33.713Z,13.95
2023-02-19T15:36:04.916Z,13.61
2023-02-19T15:38:33.161Z,13.78
2023-02-19T15:41:00.255Z,13.97
2023-02-19T15:43:44.417Z,13.65
2023-02-19T15:46:20.253Z,13.70
2023-02-19T15:48:52.573Z,13.90
2023-02-19T15:51:26.003Z,14.25
2023-02-19T15:53:59.421Z,14.90
2023-02-19T15:56:30.757Z,14.49
2023-02-19T15:59:03.351Z,14.17
2023-02-19T16:01:33.001Z,14.89
2023-02-19T16:04:00.506Z,14.83
2023-02-19T16:06:28.198Z,14.29
2023-02-19T16:09:01.839Z,14.00
2023-02-19T16:11:37.376Z,13.11
2023-02-19T16:14:30.631Z,12.90
2023-02-19T16:17:20.728Z,12.89
2023-02-19T16:19:57.391Z,12.16
2023-02-19T16:22:27.323Z,12.23
2023-02-19T16:24:57.878Z,12.19
2023-02-19T16:27:37.784Z,11.76
2023-02-19T16:30:09.507Z,11.65
2023-02-19T16:32:36.170Z,11.56
2023-02-19T16:35:02.798Z,11.48
2023-02-19T16:37:41.178Z,11.29
2023-02-19T16:40:07.723Z,11.19
2023-02-19T16:42:49.168Z,11.00
2023-02-19T16:45:16.678Z,10.91
2023-02-19T16:47:51.212Z,10.65
2023-02-19T16:50:21.749Z,10.70
2023-02-19T16:52:59.289Z,10.32
2023-02-19T16:55:26.807Z,10.33
2023-02-19T16:57:53.463Z,10.21
2023-02-19T17:00:23.220Z,9.97
2023-02-19T17:02:53.545Z,9.94
2023-02-19T17:05:22.073Z,9.78
2023-02-19T17:07:48.984Z,9.77
2023-02-19T17:10:33.684Z,9.61
2023-02-19T17:13:00.367Z,9.45
2023-02-19T17:15:26.857Z,9.40
2023-02-19T17:17:53.348Z,9.62
2023-02-19T17:20:29.432Z,9.39
2023-02-19T17:22:56.628Z,9.33
2023-02-19T17:25:23.428Z,9.33
2023-02-19T17:27:50.017Z,9.18
2023-02-19T17:30:27.604Z,9.13
2023-02-19T17:32:54.228Z,9.12
2023-02-19T17:35:21.052Z,9.04
2023-02-19T17:37:47.849Z,9.28
2023-02-19T17:40:31.897Z,9.14
2023-02-19T17:42:59.705Z,8.83
2023-02-19T17:45:26.236Z,8.81
2023-02-19T17:47:53.178Z,8.51
2023-02-19T17:50:23.579Z,8.72
2023-02-19T17:52:50.076Z,8.72
2023-02-19T17:55:21.063Z,8.76
2023-02-19T17:57:49.407Z,8.79
2023-02-19T18:00:17.863Z,8.74
2023-02-19T18:02:44.607Z,8.92
2023-02-19T18:05:11.347Z,8.81
2023-02-19T18:07:38.579Z,8.75
2023-02-19T18:10:06.380Z,8.91
2023-02-19T18:12:33.060Z,8.93
2023-02-19T18:14:59.562Z,8.90
2023-02-19T18:17:26.470Z,9.12
2023-02-19T18:19:53.475Z,9.11
2023-02-19T18:22:20.427Z,9.34
2023-02-19T18:24:48.725Z,9.49
2023-02-19T18:27:16.120Z,9.48
2023-02-19T18:29:42.702Z,9.68
2023-02-19T18:32:09.439Z,9.63
2023-02-19T18:34:36.169Z,9.76
2023-02-19T18:37:02.698Z,9.85
2023-02-19T18:39:29.360Z,9.84
2023-02-19T18:41:57.780Z,9.70
2023-02-19T18:44:25.388Z,9.77
2023-02-19T18:46:52.536Z,9.79
2023-02-19T18:49:19.517Z,9.77
2023-02-19T18:51:47.004Z,9.87
2023-02-19T18:54:13.602Z,9.70
2023-02-19T18:56:44.636Z,9.58
2023-02-19T18:59:11.256Z,9.64
2023-02-19T19:01:37.845Z,9.65
2023-02-19T19:04:04.668Z,9.64
2023-02-19T19:06:31.268Z,9.63
2023-02-19T19:09:00.974Z,9.37
2023-02-19T19:11:27.742Z,9.52
2023-02-19T19:13:54.400Z,9.37
2023-02-19T19:16:28.576Z,9.30
2023-02-19T19:18:56.010Z,9.13
2023-02-19T19:21:23.398Z,9.04
2023-02-19T19:23:50.466Z,8.98
2023-02-19T19:26:17.064Z,8.89
2023-02-19T19:28:46.775Z,9.07
2023-02-19T19:31:16.370Z,9.20
2023-02-19T19:33:43.792Z,9.30
2023-02-19T19:36:11.564Z,9.33
2023-02-19T19:38:38.478Z,9.41
2023-02-19T19:41:06.904Z,9.65
2023-02-19T19:43:33.878Z,9.78
2023-02-19T19:46:03.211Z,9.60
2023-02-19T19:48:29.789Z,9.68
2023-02-19T19:50:57.199Z,9.67
2023-02-19T19:53:24.454Z,9.67
2023-02-19T19:55:51.048Z,9.72
2023-02-19T19:58:20.932Z,9.74
2023-02-19T20:00:47.507Z,9.83
2023-02-19T20:03:14.252Z,9.89
2023-02-19T20:05:40.895Z,10.01
2023-02-19T20:08:07.605Z,9.92
2023-02-19T20:10:34.231Z,9.97
2023-02-19T20:13:01.782Z,9.68
2023-02-19T20:15:28.445Z,9.71
2023-02-19T20:17:55.002Z,9.62
2023-02-19T20:20:22.885Z,9.70
2023-02-19T20:22:51.843Z,9.64
2023-02-19T20:25:21.681Z,9.65
2023-02-19T20:27:49.630Z,9.64
2023-02-19T20:30:17.577Z,9.58
2023-02-19T20:32:44.146Z,9.68
2023-02-19T20:35:10.746Z,9.90
2023-02-19T20:37:40.565Z,9.70
2023-02-19T20:40:08.444Z,9.62
2023-02-19T20:42:34.987Z,9.43
2023-02-19T20:45:01.547Z,9.40
2023-02-19T20:47:28.219Z,9.48
2023-02-19T20:49:54.820Z,9.42
2023-02-19T20:52:22.128Z,9.48
2023-02-19T20:54:48.615Z,9.71
2023-02-19T20:57:15.282Z,9.38
2023-02-19T20:59:44.268Z,9.32
2023-02-19T21:02:20.152Z,9.14
2023-02-19T21:04:48.001Z,8.88
2023-02-19T21:07:15.066Z,8.79
2023-02-19T21:09:41.582Z,8.64
2023-02-19T21:12:08.219Z,8.85
2023-02-19T21:14:34.762Z,9.04
2023-02-19T21:17:01.289Z,8.78
2023-02-19T21:19:27.767Z,8.76
2023-02-19T21:21:54.319Z,8.85
2023-02-19T21:24:20.875Z,8.89
2023-02-19T21:26:47.460Z,8.90
2023-02-19T21:29:19.975Z,9.15
2023-02-19T21:31:49.516Z,9.16
2023-02-19T21:34:18.858Z,9.38
2023-02-19T21:36:45.664Z,9.65
2023-02-19T21:39:15.423Z,9.69
2023-02-19T21:41:42.119Z,9.45
2023-02-19T21:44:08.788Z,9.41
2023-02-19T21:46:35.364Z,9.44
2023-02-19T21:49:02.617Z,9.55
2023-02-19T21:51:32.319Z,9.64
2023-02-19T21:53:59.329Z,9.57
2023-02-19T21:56:28.928Z,9.65
2023-02-19T21:58:56.004Z,9.73
2023-02-19T22:01:24.803Z,9.67
2023-02-19T22:03:51.717Z,9.76
2023-02-19T22:06:19.688Z,9.70
2023-02-19T22:08:46.174Z,9.71
2023-02-19T22:11:12.732Z,9.81
2023-02-19T22:13:39.722Z,9.72
2023-02-19T22:16:06.467Z,9.65
2023-02-19T22:18:33.176Z,9.60
2023-02-19T22:20:59.696Z,9.68
2023-02-19T22:23:26.412Z,9.70
2023-02-19T22:25:52.954Z,9.59
2023-02-19T22:28:19.514Z,9.62
2023-02-19T22:30:46.431Z,9.47
2023-02-19T22:33:13.244Z,9.59
2023-02-19T22:35:39.808Z,9.23
2023-02-19T22:38:06.445Z,9.11
2023-02-19T22:40:32.917Z,8.84
2023-02-19T22:42:59.436Z,8.86
2023-02-19T22:45:26.261Z,8.71
2023-02-19T22:47:56.334Z,8.54
2023-02-19T22:50:23.179Z,8.31
2023-02-19T22:52:50.241Z,8.22
2023-02-19T22:55:18.293Z,8.41
2023-02-19T22:57:44.819Z,8.62
2023-02-19T23:00:20.973Z,8.71
2023-02-19T23:02:48.544Z,8.60
2023-02-19T23:05:16.201Z,8.48
2023-02-19T23:07:44.386Z,8.69
2023-02-19T23:10:12.910Z,8.71
2023-02-19T23:12:40.906Z,8.79
2023-02-19T23:15:09.549Z,8.82
2023-02-19T23:17:36.161Z,8.56
2023-02-19T23:20:03.384Z,8.55
2023-02-19T23:22:30.138Z,8.49
2023-02-19T23:24:57.061Z,8.42
2023-02-19T23:27:24.307Z,8.55
2023-02-19T23:29:50.959Z,8.85
2023-02-19T23:32:20.987Z,8.95
2023-02-19T23:34:48.339Z,8.43
2023-02-19T23:37:15.377Z,8.13
2023-02-19T23:39:42.025Z,7.91
2023-02-19T23:42:14.941Z,7.88
2023-02-19T23:44:41.508Z,7.54
2023-02-19T23:47:08.150Z,7.68
2023-02-19T23:49:34.677Z,7.31
2023-02-19T23:52:01.236Z,7.57
2023-02-19T23:54:27.802Z,7.11
2023-02-19T23:56:56.034Z,7.16
2023-02-19T23:59:25.387Z,7.19
